sensor_id;sensor_type;location;lat;lon;timestamp;P1;durP1;ratioP1;P2;durP2;ratioP2
26989;SDS011;14537;47.788;11.858;2023-06-10T00:02:25;9.57;;;3.45;;
26989;SDS011;14537;47.788;11.858;2023-06-10T00:04:51;4.90;;;3.10;;
26989;SDS011;14537;47.788;11.858;2023-06-10T00:07:17;9.38;;;3.45;;
26989;SDS011;14537;47.788;11.858;2023-06-10T00:09:43;5.65;;;3.40;;
26989;SDS011;14537;47.788;11.858;2023-06-10T00:12:09;4.63;;;3.20;;
26989;SDS011;14537;47.788;11.858;2023-06-10T00:14:38;4.53;;;3.17;;
26989;SDS011;14537;47.788;11.858;2023-06-10T00:17:05;7.13;;;3.55;;
26989;SDS011;14537;47.788;11.858;2023-06-10T00:19:35;5.72;;;3.58;;
26989;SDS011;14537;47.788;11.858;2023-06-10T00:22:01;6.40;;;3.67;;
26989;SDS011;14537;47.788;11.858;2023-06-10T00:24:28;6.63;;;3.47;;
26989;SDS011;14537;47.788;11.858;2023-06-10T00:26:54;5.47;;;3.15;;
26989;SDS011;14537;47.788;11.858;2023-06-10T00:29:20;7.28;;;3.17;;
26989;SDS011;14537;47.788;11.858;2023-06-10T00:31:45;5.32;;;2.90;;
26989;SDS011;14537;47.788;11.858;2023-06-10T00:34:12;6.20;;;3.80;;
26989;SDS011;14537;47.788;11.858;2023-06-10T00:36:37;4.68;;;3.00;;
26989;SDS011;14537;47.788;11.858;2023-06-10T00:39:04;7.07;;;3.60;;
26989;SDS011;14537;47.788;11.858;2023-06-10T00:41:29;6.03;;;3.28;;
26989;SDS011;14537;47.788;11.858;2023-06-10T00:43:56;4.95;;;3.10;;
26989;SDS011;14537;47.788;11.858;2023-06-10T00:46:22;6.90;;;3.15;;
26989;SDS011;14537;47.788;11.858;2023-06-10T00:48:49;4.50;;;2.80;;
26989;SDS011;14537;47.788;11.858;2023-06-10T00:51:16;5.70;;;3.35;;
26989;SDS011;14537;47.788;11.858;2023-06-10T00:53:42;5.38;;;3.50;;
26989;SDS011;14537;47.788;11.858;2023-06-10T00:56:09;5.65;;;3.58;;
26989;SDS011;14537;47.788;11.858;2023-06-10T00:58:35;8.20;;;3.70;;
26989;SDS011;14537;47.788;11.858;2023-06-10T01:01:01;6.22;;;3.20;;
26989;SDS011;14537;47.788;11.858;2023-06-10T01:03:28;7.07;;;3.35;;
26989;SDS011;14537;47.788;11.858;2023-06-10T01:06:00;5.47;;;3.33;;
26989;SDS011;14537;47.788;11.858;2023-06-10T01:08:50;5.68;;;3.42;;
26989;SDS011;14537;47.788;11.858;2023-06-10T01:11:23;4.97;;;3.33;;
26989;SDS011;14537;47.788;11.858;2023-06-10T01:13:53;3.95;;;3.25;;
26989;SDS011;14537;47.788;11.858;2023-06-10T01:16:21;4.38;;;3.08;;
26989;SDS011;14537;47.788;11.858;2023-06-10T01:18:47;5.78;;;3.65;;
26989;SDS011;14537;47.788;11.858;2023-06-10T01:21:13;5.43;;;3.53;;
26989;SDS011;14537;47.788;11.858;2023-06-10T01:23:46;15.23;;;3.40;;
26989;SDS011;14537;47.788;11.858;2023-06-10T01:26:12;5.50;;;3.47;;
26989;SDS011;14537;47.788;11.858;2023-06-10T01:28:47;9.82;;;3.47;;
26989;SDS011;14537;47.788;11.858;2023-06-10T01:34:17;6.18;;;3.25;;
26989;SDS011;14537;47.788;11.858;2023-06-10T01:36:47;5.40;;;2.90;;
26989;SDS011;14537;47.788;11.858;2023-06-10T01:39:14;7.25;;;3.97;;
26989;SDS011;14537;47.788;11.858;2023-06-10T01:41:42;5.70;;;3.50;;
26989;SDS011;14537;47.788;11.858;2023-06-10T01:44:08;5.63;;;3.53;;
26989;SDS011;14537;47.788;11.858;2023-06-10T01:46:34;8.60;;;4.03;;
26989;SDS011;14537;47.788;11.858;2023-06-10T01:49:00;6.20;;;3.83;;
26989;SDS011;14537;47.788;11.858;2023-06-10T01:51:26;5.57;;;3.67;;
26989;SDS011;14537;47.788;11.858;2023-06-10T01:53:51;5.88;;;3.50;;
26989;SDS011;14537;47.788;11.858;2023-06-10T01:56:17;6.70;;;3.25;;
26989;SDS011;14537;47.788;11.858;2023-06-10T01:58:44;4.70;;;3.50;;
26989;SDS011;14537;47.788;11.858;2023-06-10T02:01:10;5.78;;;3.88;;
26989;SDS011;14537;47.788;11.858;2023-06-10T02:03:36;6.00;;;3.10;;
26989;SDS011;14537;47.788;11.858;2023-06-10T02:06:02;7.75;;;4.13;;
26989;SDS011;14537;47.788;11.858;2023-06-10T02:08:28;5.47;;;3.38;;
26989;SDS011;14537;47.788;11.858;2023-06-10T02:10:53;6.55;;;3.40;;
26989;SDS011;14537;47.788;11.858;2023-06-10T02:13:19;5.75;;;3.65;;
26989;SDS011;14537;47.788;11.858;2023-06-10T02:15:45;6.63;;;3.83;;
26989;SDS011;14537;47.788;11.858;2023-06-10T02:18:11;5.60;;;3.65;;
26989;SDS011;14537;47.788;11.858;2023-06-10T02:20:37;6.95;;;3.58;;
26989;SDS011;14537;47.788;11.858;2023-06-10T02:23:03;4.88;;;3.15;;
26989;SDS011;14537;47.788;11.858;2023-06-10T02:25:28;8.25;;;3.30;;
26989;SDS011;14537;47.788;11.858;2023-06-10T02:27:54;6.63;;;3.38;;
26989;SDS011;14537;47.788;11.858;2023-06-10T02:30:20;6.00;;;3.63;;
26989;SDS011;14537;47.788;11.858;2023-06-10T02:32:46;5.47;;;3.85;;
26989;SDS011;14537;47.788;11.858;2023-06-10T02:35:15;5.35;;;3.28;;
26989;SDS011;14537;47.788;11.858;2023-06-10T02:37:42;5.97;;;3.47;;
26989;SDS011;14537;47.788;11.858;2023-06-10T02:40:08;5.45;;;3.65;;
26989;SDS011;14537;47.788;11.858;2023-06-10T02:42:35;5.85;;;3.80;;
26989;SDS011;14537;47.788;11.858;2023-06-10T02:45:01;6.18;;;3.78;;
26989;SDS011;14537;47.788;11.858;2023-06-10T02:47:26;5.25;;;3.40;;
26989;SDS011;14537;47.788;11.858;2023-06-10T02:49:52;5.57;;;3.35;;
26989;SDS011;14537;47.788;11.858;2023-06-10T02:52:18;6.25;;;3.60;;
26989;SDS011;14537;47.788;11.858;2023-06-10T02:54:43;7.38;;;4.03;;
26989;SDS011;14537;47.788;11.858;2023-06-10T02:57:10;7.10;;;3.33;;
26989;SDS011;14537;47.788;11.858;2023-06-10T02:59:36;5.93;;;3.53;;
26989;SDS011;14537;47.788;11.858;2023-06-10T03:02:01;5.05;;;3.42;;
26989;SDS011;14537;47.788;11.858;2023-06-10T03:04:27;6.03;;;3.55;;
26989;SDS011;14537;47.788;11.858;2023-06-10T03:06:54;6.10;;;3.40;;
26989;SDS011;14537;47.788;11.858;2023-06-10T03:09:20;6.05;;;3.75;;
26989;SDS011;14537;47.788;11.858;2023-06-10T03:11:45;6.68;;;3.95;;
26989;SDS011;14537;47.788;11.858;2023-06-10T03:14:11;7.90;;;3.60;;
26989;SDS011;14537;47.788;11.858;2023-06-10T03:16:37;5.95;;;3.85;;
26989;SDS011;14537;47.788;11.858;2023-06-10T03:19:05;6.63;;;4.30;;
26989;SDS011;14537;47.788;11.858;2023-06-10T03:21:34;6.03;;;3.67;;
26989;SDS011;14537;47.788;11.858;2023-06-10T03:24:02;6.75;;;4.05;;
26989;SDS011;14537;47.788;11.858;2023-06-10T03:26:28;6.57;;;3.97;;
26989;SDS011;14537;47.788;11.858;2023-06-10T03:28:53;6.18;;;4.00;;
26989;SDS011;14537;47.788;11.858;2023-06-10T03:31:19;7.13;;;3.70;;
26989;SDS011;14537;47.788;11.858;2023-06-10T03:33:45;6.80;;;3.72;;
26989;SDS011;14537;47.788;11.858;2023-06-10T03:36:10;5.57;;;3.55;;
26989;SDS011;14537;47.788;11.858;2023-06-10T03:38:36;6.45;;;3.90;;
26989;SDS011;14537;47.788;11.858;2023-06-10T03:41:02;6.13;;;3.90;;
26989;SDS011;14537;47.788;11.858;2023-06-10T03:43:27;8.93;;;4.25;;
26989;SDS011;14537;47.788;11.858;2023-06-10T03:45:53;6.78;;;3.67;;
26989;SDS011;14537;47.788;11.858;2023-06-10T03:48:18;6.50;;;4.15;;
26989;SDS011;14537;47.788;11.858;2023-06-10T03:50:44;5.25;;;3.25;;
26989;SDS011;14537;47.788;11.858;2023-06-10T03:53:12;6.90;;;3.85;;
26989;SDS011;14537;47.788;11.858;2023-06-10T03:55:38;5.72;;;3.97;;
26989;SDS011;14537;47.788;11.858;2023-06-10T03:58:03;8.38;;;4.20;;
26989;SDS011;14537;47.788;11.858;2023-06-10T04:00:29;7.43;;;4.20;;
26989;SDS011;14537;47.788;11.858;2023-06-10T04:02:55;8.35;;;4.20;;
26989;SDS011;14537;47.788;11.858;2023-06-10T04:05:23;7.50;;;4.13;;
26989;SDS011;14537;47.788;11.858;2023-06-10T04:07:48;8.25;;;4.32;;
26989;SDS011;14537;47.788;11.858;2023-06-10T04:10:15;6.72;;;3.83;;
26989;SDS011;14537;47.788;11.858;2023-06-10T04:12:41;5.88;;;3.85;;
26989;SDS011;14537;47.788;11.858;2023-06-10T04:15:07;5.93;;;3.83;;
26989;SDS011;14537;47.788;11.858;2023-06-10T04:17:33;5.30;;;3.63;;
26989;SDS011;14537;47.788;11.858;2023-06-10T04:19:59;7.60;;;4.43;;
26989;SDS011;14537;47.788;11.858;2023-06-10T04:22:25;7.07;;;3.92;;
26989;SDS011;14537;47.788;11.858;2023-06-10T04:24:51;5.50;;;3.85;;
26989;SDS011;14537;47.788;11.858;2023-06-10T04:27:17;6.15;;;4.10;;
26989;SDS011;14537;47.788;11.858;2023-06-10T04:29:42;6.93;;;4.38;;
26989;SDS011;14537;47.788;11.858;2023-06-10T04:32:08;6.38;;;4.60;;
26989;SDS011;14537;47.788;11.858;2023-06-10T04:34:34;5.35;;;3.92;;
26989;SDS011;14537;47.788;11.858;2023-06-10T04:36:59;9.80;;;4.20;;
26989;SDS011;14537;47.788;11.858;2023-06-10T04:39:25;10.07;;;4.50;;
26989;SDS011;14537;47.788;11.858;2023-06-10T04:41:51;6.38;;;4.55;;
26989;SDS011;14537;47.788;11.858;2023-06-10T04:44:16;7.30;;;5.00;;
26989;SDS011;14537;47.788;11.858;2023-06-10T04:46:43;10.90;;;4.72;;
26989;SDS011;14537;47.788;11.858;2023-06-10T04:49:09;9.15;;;4.70;;
26989;SDS011;14537;47.788;11.858;2023-06-10T04:51:34;11.60;;;5.40;;
26989;SDS011;14537;47.788;11.858;2023-06-10T04:54:00;8.90;;;5.43;;
26989;SDS011;14537;47.788;11.858;2023-06-10T04:56:29;10.90;;;5.07;;
26989;SDS011;14537;47.788;11.858;2023-06-10T04:58:56;8.93;;;4.97;;
26989;SDS011;14537;47.788;11.858;2023-06-10T05:01:22;8.90;;;4.90;;
26989;SDS011;14537;47.788;11.858;2023-06-10T05:03:47;9.65;;;5.13;;
26989;SDS011;14537;47.788;11.858;2023-06-10T05:06:13;7.22;;;4.70;;
26989;SDS011;14537;47.788;11.858;2023-06-10T05:08:39;7.20;;;4.68;;
26989;SDS011;14537;47.788;11.858;2023-06-10T05:11:04;8.45;;;4.75;;
26989;SDS011;14537;47.788;11.858;2023-06-10T05:13:31;12.20;;;5.53;;
26989;SDS011;14537;47.788;11.858;2023-06-10T05:15:56;9.20;;;5.05;;
26989;SDS011;14537;47.788;11.858;2023-06-10T05:18:22;8.88;;;4.75;;
26989;SDS011;14537;47.788;11.858;2023-06-10T05:20:48;8.70;;;5.35;;
26989;SDS011;14537;47.788;11.858;2023-06-10T05:23:14;8.30;;;4.85;;
26989;SDS011;14537;47.788;11.858;2023-06-10T05:25:40;8.35;;;4.78;;
26989;SDS011;14537;47.788;11.858;2023-06-10T05:28:06;5.47;;;4.32;;
26989;SDS011;14537;47.788;11.858;2023-06-10T05:30:34;9.15;;;4.50;;
26989;SDS011;14537;47.788;11.858;2023-06-10T05:33:00;6.82;;;4.43;;
26989;SDS011;14537;47.788;11.858;2023-06-10T05:35:26;7.43;;;4.32;;
26989;SDS011;14537;47.788;11.858;2023-06-10T05:37:51;7.22;;;4.25;;
26989;SDS011;14537;47.788;11.858;2023-06-10T05:40:17;8.43;;;4.18;;
26989;SDS011;14537;47.788;11.858;2023-06-10T05:42:43;5.85;;;4.15;;
26989;SDS011;14537;47.788;11.858;2023-06-10T05:45:08;6.75;;;4.05;;
26989;SDS011;14537;47.788;11.858;2023-06-10T05:47:35;8.00;;;4.82;;
26989;SDS011;14537;47.788;11.858;2023-06-10T05:50:00;7.25;;;4.40;;
26989;SDS011;14537;47.788;11.858;2023-06-10T05:52:26;7.88;;;4.35;;
26989;SDS011;14537;47.788;11.858;2023-06-10T05:54:51;11.13;;;5.78;;
26989;SDS011;14537;47.788;11.858;2023-06-10T05:57:17;7.88;;;4.45;;
26989;SDS011;14537;47.788;11.858;2023-06-10T05:59:42;9.93;;;5.60;;
26989;SDS011;14537;47.788;11.858;2023-06-10T06:02:08;9.55;;;5.20;;
26989;SDS011;14537;47.788;11.858;2023-06-10T06:04:34;14.35;;;6.38;;
26989;SDS011;14537;47.788;11.858;2023-06-10T06:06:59;8.73;;;5.53;;
26989;SDS011;14537;47.788;11.858;2023-06-10T06:09:25;9.85;;;5.57;;
26989;SDS011;14537;47.788;11.858;2023-06-10T06:11:51;10.25;;;6.03;;
26989;SDS011;14537;47.788;11.858;2023-06-10T06:14:16;9.73;;;5.25;;
26989;SDS011;14537;47.788;11.858;2023-06-10T06:16:42;10.55;;;5.97;;
26989;SDS011;14537;47.788;11.858;2023-06-10T06:19:07;8.50;;;5.35;;
26989;SDS011;14537;47.788;11.858;2023-06-10T06:21:34;8.60;;;5.55;;
26989;SDS011;14537;47.788;11.858;2023-06-10T06:24:00;9.05;;;5.35;;
26989;SDS011;14537;47.788;11.858;2023-06-10T06:26:25;9.40;;;5.95;;
26989;SDS011;14537;47.788;11.858;2023-06-10T06:28:51;9.45;;;5.75;;
26989;SDS011;14537;47.788;11.858;2023-06-10T06:31:17;14.73;;;6.57;;
26989;SDS011;14537;47.788;11.858;2023-06-10T06:33:43;7.80;;;5.15;;
26989;SDS011;14537;47.788;11.858;2023-06-10T06:36:08;8.65;;;5.30;;
26989;SDS011;14537;47.788;11.858;2023-06-10T06:38:34;9.20;;;5.47;;
26989;SDS011;14537;47.788;11.858;2023-06-10T06:40:59;8.38;;;5.22;;
26989;SDS011;14537;47.788;11.858;2023-06-10T06:43:28;10.60;;;5.55;;
26989;SDS011;14537;47.788;11.858;2023-06-10T06:45:55;10.85;;;5.60;;
26989;SDS011;14537;47.788;11.858;2023-06-10T06:48:22;12.60;;;5.63;;
26989;SDS011;14537;47.788;11.858;2023-06-10T06:50:47;9.57;;;5.68;;
26989;SDS011;14537;47.788;11.858;2023-06-10T06:53:13;8.00;;;5.07;;
26989;SDS011;14537;47.788;11.858;2023-06-10T06:55:38;9.70;;;5.28;;
26989;SDS011;14537;47.788;11.858;2023-06-10T06:58:04;7.85;;;4.43;;
26989;SDS011;14537;47.788;11.858;2023-06-10T07:00:30;10.52;;;5.70;;
26989;SDS011;14537;47.788;11.858;2023-06-10T07:02:56;7.88;;;4.90;;
26989;SDS011;14537;47.788;11.858;2023-06-10T07:05:22;7.60;;;4.60;;
26989;SDS011;14537;47.788;11.858;2023-06-10T07:07:48;8.63;;;4.82;;
26989;SDS011;14537;47.788;11.858;2023-06-10T07:10:19;12.02;;;5.00;;
26989;SDS011;14537;47.788;11.858;2023-06-10T07:15:15;9.48;;;4.93;;
26989;SDS011;14537;47.788;11.858;2023-06-10T07:17:41;8.55;;;4.82;;
26989;SDS011;14537;47.788;11.858;2023-06-10T07:20:06;8.85;;;4.95;;
26989;SDS011;14537;47.788;11.858;2023-06-10T07:22:32;10.00;;;4.32;;
26989;SDS011;14537;47.788;11.858;2023-06-10T07:24:58;7.13;;;4.68;;
26989;SDS011;14537;47.788;11.858;2023-06-10T07:27:23;7.30;;;4.80;;
26989;SDS011;14537;47.788;11.858;2023-06-10T07:29:50;7.75;;;4.80;;
26989;SDS011;14537;47.788;11.858;2023-06-10T07:32:16;9.25;;;5.28;;
26989;SDS011;14537;47.788;11.858;2023-06-10T07:34:42;8.48;;;4.85;;
26989;SDS011;14537;47.788;11.858;2023-06-10T07:37:08;8.20;;;4.70;;
26989;SDS011;14537;47.788;11.858;2023-06-10T07:39:34;7.40;;;4.47;;
26989;SDS011;14537;47.788;11.858;2023-06-10T07:41:59;7.38;;;4.35;;
26989;SDS011;14537;47.788;11.858;2023-06-10T07:44:25;8.13;;;4.97;;
26989;SDS011;14537;47.788;11.858;2023-06-10T07:46:51;8.07;;;4.90;;
26989;SDS011;14537;47.788;11.858;2023-06-10T07:49:17;10.02;;;4.95;;
26989;SDS011;14537;47.788;11.858;2023-06-10T07:51:42;7.53;;;4.57;;
26989;SDS011;14537;47.788;11.858;2023-06-10T07:54:08;8.15;;;4.78;;
26989;SDS011;14537;47.788;11.858;2023-06-10T07:56:33;9.38;;;4.82;;
26989;SDS011;14537;47.788;11.858;2023-06-10T07:58:59;8.20;;;5.20;;
26989;SDS011;14537;47.788;11.858;2023-06-10T08:01:25;7.60;;;4.60;;
26989;SDS011;14537;47.788;11.858;2023-06-10T08:03:50;9.43;;;5.43;;
26989;SDS011;14537;47.788;11.858;2023-06-10T08:06:16;10.43;;;5.55;;
26989;SDS011;14537;47.788;11.858;2023-06-10T08:08:42;11.93;;;5.85;;
26989;SDS011;14537;47.788;11.858;2023-06-10T08:11:09;13.38;;;6.13;;
26989;SDS011;14537;47.788;11.858;2023-06-10T08:13:38;10.30;;;5.53;;
26989;SDS011;14537;47.788;11.858;2023-06-10T08:16:04;7.93;;;5.03;;
26989;SDS011;14537;47.788;11.858;2023-06-10T08:18:30;11.05;;;5.97;;
26989;SDS011;14537;47.788;11.858;2023-06-10T08:20:56;10.35;;;6.00;;
26989;SDS011;14537;47.788;11.858;2023-06-10T08:23:22;7.88;;;4.72;;
26989;SDS011;14537;47.788;11.858;2023-06-10T08:25:47;10.52;;;6.03;;
26989;SDS011;14537;47.788;11.858;2023-06-10T08:28:13;9.85;;;5.43;;
26989;SDS011;14537;47.788;11.858;2023-06-10T08:30:38;9.90;;;6.28;;
26989;SDS011;14537;47.788;11.858;2023-06-10T08:33:04;7.60;;;5.22;;
26989;SDS011;14537;47.788;11.858;2023-06-10T08:35:30;11.87;;;5.27;;
26989;SDS011;14537;47.788;11.858;2023-06-10T08:37:55;11.15;;;6.45;;
26989;SDS011;14537;47.788;11.858;2023-06-10T08:40:21;8.98;;;5.35;;
26989;SDS011;14537;47.788;11.858;2023-06-10T08:42:57;10.07;;;5.95;;
26989;SDS011;14537;47.788;11.858;2023-06-10T08:45:31;10.32;;;6.70;;
26989;SDS011;14537;47.788;11.858;2023-06-10T08:48:00;9.18;;;5.68;;
26989;SDS011;14537;47.788;11.858;2023-06-10T08:50:34;11.43;;;6.57;;
26989;SDS011;14537;47.788;11.858;2023-06-10T08:53:01;12.52;;;6.82;;
26989;SDS011;14537;47.788;11.858;2023-06-10T08:55:31;14.10;;;7.03;;
26989;SDS011;14537;47.788;11.858;2023-06-10T08:57:59;11.73;;;6.53;;
26989;SDS011;14537;47.788;11.858;2023-06-10T09:00:26;14.95;;;6.75;;
26989;SDS011;14537;47.788;11.858;2023-06-10T09:02:52;9.77;;;6.13;;
26989;SDS011;14537;47.788;11.858;2023-06-10T09:05:18;7.45;;;5.15;;
26989;SDS011;14537;47.788;11.858;2023-06-10T09:07:45;13.07;;;7.15;;
26989;SDS011;14537;47.788;11.858;2023-06-10T09:10:12;9.38;;;5.82;;
26989;SDS011;14537;47.788;11.858;2023-06-10T09:12:38;9.88;;;6.03;;
26989;SDS011;14537;47.788;11.858;2023-06-10T09:15:04;8.90;;;5.10;;
26989;SDS011;14537;47.788;11.858;2023-06-10T09:17:31;9.20;;;5.72;;
26989;SDS011;14537;47.788;11.858;2023-06-10T09:19:57;9.23;;;5.88;;
26989;SDS011;14537;47.788;11.858;2023-06-10T09:22:24;9.68;;;5.90;;
26989;SDS011;14537;47.788;11.858;2023-06-10T09:24:51;10.60;;;6.03;;
26989;SDS011;14537;47.788;11.858;2023-06-10T09:27:29;10.82;;;5.35;;
26989;SDS011;14537;47.788;11.858;2023-06-10T09:29:55;7.90;;;5.07;;
26989;SDS011;14537;47.788;11.858;2023-06-10T09:32:22;10.20;;;6.18;;
26989;SDS011;14537;47.788;11.858;2023-06-10T09:34:49;9.90;;;5.78;;
26989;SDS011;14537;47.788;11.858;2023-06-10T09:37:24;8.90;;;5.57;;
26989;SDS011;14537;47.788;11.858;2023-06-10T09:40:03;9.30;;;6.00;;
26989;SDS011;14537;47.788;11.858;2023-06-10T09:42:32;14.63;;;6.80;;
26989;SDS011;14537;47.788;11.858;2023-06-10T09:44:59;9.30;;;5.57;;
26989;SDS011;14537;47.788;11.858;2023-06-10T09:47:25;14.27;;;6.47;;
26989;SDS011;14537;47.788;11.858;2023-06-10T09:49:51;9.82;;;5.10;;
26989;SDS011;14537;47.788;11.858;2023-06-10T09:52:23;9.52;;;5.63;;
26989;SDS011;14537;47.788;11.858;2023-06-10T09:54:52;9.10;;;5.75;;
26989;SDS011;14537;47.788;11.858;2023-06-10T09:59:45;9.77;;;5.60;;
26989;SDS011;14537;47.788;11.858;2023-06-10T10:02:14;7.55;;;5.13;;
26989;SDS011;14537;47.788;11.858;2023-06-10T10:04:40;7.35;;;5.00;;
26989;SDS011;14537;47.788;11.858;2023-06-10T10:07:07;9.52;;;5.97;;
26989;SDS011;14537;47.788;11.858;2023-06-10T10:09:33;9.85;;;6.43;;
26989;SDS011;14537;47.788;11.858;2023-06-10T10:12:01;8.38;;;4.85;;
26989;SDS011;14537;47.788;11.858;2023-06-10T10:14:28;8.85;;;6.20;;
26989;SDS011;14537;47.788;11.858;2023-06-10T10:16:57;11.45;;;6.68;;
26989;SDS011;14537;47.788;11.858;2023-06-10T10:19:28;10.20;;;6.15;;
26989;SDS011;14537;47.788;11.858;2023-06-10T10:22:10;15.00;;;6.32;;
26989;SDS011;14537;47.788;11.858;2023-06-10T10:24:46;8.55;;;5.40;;
26989;SDS011;14537;47.788;11.858;2023-06-10T10:27:30;10.63;;;6.10;;
26989;SDS011;14537;47.788;11.858;2023-06-10T10:30:01;8.85;;;5.28;;
26989;SDS011;14537;47.788;11.858;2023-06-10T10:32:40;9.60;;;5.70;;
26989;SDS011;14537;47.788;11.858;2023-06-10T10:35:16;8.20;;;5.00;;
26989;SDS011;14537;47.788;11.858;2023-06-10T10:37:43;6.10;;;4.35;;
26989;SDS011;14537;47.788;11.858;2023-06-10T10:40:10;9.95;;;5.13;;
26989;SDS011;14537;47.788;11.858;2023-06-10T10:42:37;7.97;;;4.70;;
26989;SDS011;14537;47.788;11.858;2023-06-10T10:45:03;8.43;;;4.85;;
26989;SDS011;14537;47.788;11.858;2023-06-10T10:47:30;9.32;;;5.45;;
26989;SDS011;14537;47.788;11.858;2023-06-10T10:49:56;9.30;;;5.60;;
26989;SDS011;14537;47.788;11.858;2023-06-10T10:52:24;9.60;;;6.25;;
26989;SDS011;14537;47.788;11.858;2023-06-10T10:54:52;9.80;;;5.03;;
26989;SDS011;14537;47.788;11.858;2023-06-10T10:57:22;8.88;;;4.95;;
26989;SDS011;14537;47.788;11.858;2023-06-10T11:02:17;7.30;;;4.75;;
26989;SDS011;14537;47.788;11.858;2023-06-10T11:04:56;6.72;;;4.47;;
26989;SDS011;14537;47.788;11.858;2023-06-10T11:07:24;7.18;;;4.45;;
26989;SDS011;14537;47.788;11.858;2023-06-10T11:10:03;7.40;;;4.93;;
26989;SDS011;14537;47.788;11.858;2023-06-10T11:15:10;5.63;;;3.88;;
26989;SDS011;14537;47.788;11.858;2023-06-10T11:25:51;8.90;;;4.93;;
26989;SDS011;14537;47.788;11.858;2023-06-10T11:28:19;5.57;;;3.65;;
26989;SDS011;14537;47.788;11.858;2023-06-10T11:30:45;7.72;;;4.50;;
26989;SDS011;14537;47.788;11.858;2023-06-10T11:33:16;5.75;;;3.88;;
26989;SDS011;14537;47.788;11.858;2023-06-10T11:35:42;5.25;;;3.80;;
26989;SDS011;14537;47.788;11.858;2023-06-10T11:38:08;5.70;;;3.75;;
26989;SDS011;14537;47.788;11.858;2023-06-10T11:40:34;6.18;;;3.40;;
26989;SDS011;14537;47.788;11.858;2023-06-10T11:43:03;6.80;;;3.67;;
26989;SDS011;14537;47.788;11.858;2023-06-10T11:45:29;5.82;;;3.40;;
26989;SDS011;14537;47.788;11.858;2023-06-10T11:47:57;6.22;;;3.33;;
26989;SDS011;14537;47.788;11.858;2023-06-10T11:50:30;5.27;;;3.43;;
26989;SDS011;14537;47.788;11.858;2023-06-10T11:52:59;5.38;;;3.33;;
26989;SDS011;14537;47.788;11.858;2023-06-10T11:55:44;5.47;;;3.70;;
26989;SDS011;14537;47.788;11.858;2023-06-10T11:58:20;4.57;;;3.22;;
26989;SDS011;14537;47.788;11.858;2023-06-10T12:00:47;4.50;;;3.00;;
26989;SDS011;14537;47.788;11.858;2023-06-10T12:03:13;4.75;;;3.33;;
26989;SDS011;14537;47.788;11.858;2023-06-10T12:05:39;5.15;;;3.42;;
26989;SDS011;14537;47.788;11.858;2023-06-10T12:08:08;5.05;;;3.10;;
26989;SDS011;14537;47.788;11.858;2023-06-10T12:10:41;4.60;;;3.22;;
26989;SDS011;14537;47.788;11.858;2023-06-10T12:13:10;5.70;;;3.88;;
26989;SDS011;14537;47.788;11.858;2023-06-10T12:15:36;5.53;;;3.75;;
26989;SDS011;14537;47.788;11.858;2023-06-10T12:18:02;4.90;;;3.25;;
26989;SDS011;14537;47.788;11.858;2023-06-10T12:20:28;4.75;;;3.33;;
26989;SDS011;14537;47.788;11.858;2023-06-10T12:22:58;5.50;;;3.45;;
26989;SDS011;14537;47.788;11.858;2023-06-10T12:25:28;10.52;;;3.22;;
26989;SDS011;14537;47.788;11.858;2023-06-10T12:27:55;7.18;;;4.50;;
26989;SDS011;14537;47.788;11.858;2023-06-10T12:30:22;3.80;;;2.60;;
26989;SDS011;14537;47.788;11.858;2023-06-10T12:32:50;4.88;;;3.17;;
26989;SDS011;14537;47.788;11.858;2023-06-10T12:35:19;4.43;;;3.10;;
26989;SDS011;14537;47.788;11.858;2023-06-10T12:40:32;4.20;;;2.70;;
26989;SDS011;14537;47.788;11.858;2023-06-10T12:43:01;3.85;;;2.95;;
26989;SDS011;14537;47.788;11.858;2023-06-10T12:45:31;4.25;;;3.17;;
26989;SDS011;14537;47.788;11.858;2023-06-10T12:48:04;3.95;;;3.00;;
26989;SDS011;14537;47.788;11.858;2023-06-10T12:50:31;5.10;;;2.88;;
26989;SDS011;14537;47.788;11.858;2023-06-10T12:52:57;6.53;;;3.30;;
26989;SDS011;14537;47.788;11.858;2023-06-10T12:55:24;3.40;;;2.35;;
26989;SDS011;14537;47.788;11.858;2023-06-10T12:57:50;4.53;;;2.67;;
26989;SDS011;14537;47.788;11.858;2023-06-10T13:00:16;4.32;;;2.78;;
26989;SDS011;14537;47.788;11.858;2023-06-10T13:02:42;4.20;;;2.55;;
26989;SDS011;14537;47.788;11.858;2023-06-10T13:05:08;2.63;;;2.28;;
26989;SDS011;14537;47.788;11.858;2023-06-10T13:07:34;3.45;;;2.22;;
26989;SDS011;14537;47.788;11.858;2023-06-10T13:09:59;4.05;;;2.90;;
26989;SDS011;14537;47.788;11.858;2023-06-10T13:12:26;5.40;;;3.10;;
26989;SDS011;14537;47.788;11.858;2023-06-10T13:14:55;4.10;;;3.13;;
26989;SDS011;14537;47.788;11.858;2023-06-10T13:17:21;3.67;;;2.42;;
26989;SDS011;14537;47.788;11.858;2023-06-10T13:19:47;4.40;;;2.50;;
26989;SDS011;14537;47.788;11.858;2023-06-10T13:22:14;3.38;;;2.53;;
26989;SDS011;14537;47.788;11.858;2023-06-10T13:24:41;9.05;;;4.85;;
26989;SDS011;14537;47.788;11.858;2023-06-10T13:27:08;5.38;;;3.17;;
26989;SDS011;14537;47.788;11.858;2023-06-10T13:29:34;3.42;;;2.38;;
26989;SDS011;14537;47.788;11.858;2023-06-10T13:31:59;4.00;;;2.63;;
26989;SDS011;14537;47.788;11.858;2023-06-10T13:34:25;3.78;;;2.22;;
26989;SDS011;14537;47.788;11.858;2023-06-10T13:36:51;3.78;;;2.30;;
26989;SDS011;14537;47.788;11.858;2023-06-10T13:39:16;3.75;;;2.35;;
26989;SDS011;14537;47.788;11.858;2023-06-10T13:41:42;7.53;;;3.03;;
26989;SDS011;14537;47.788;11.858;2023-06-10T13:44:08;3.67;;;2.75;;
26989;SDS011;14537;47.788;11.858;2023-06-10T13:46:33;5.20;;;2.85;;
26989;SDS011;14537;47.788;11.858;2023-06-10T13:48:59;4.30;;;2.58;;
26989;SDS011;14537;47.788;11.858;2023-06-10T13:51:25;6.10;;;2.60;;
26989;SDS011;14537;47.788;11.858;2023-06-10T13:53:50;4.38;;;2.78;;
26989;SDS011;14537;47.788;11.858;2023-06-10T13:56:17;4.15;;;2.70;;
26989;SDS011;14537;47.788;11.858;2023-06-10T13:58:43;4.60;;;3.10;;
26989;SDS011;14537;47.788;11.858;2023-06-10T14:01:09;3.97;;;2.80;;
26989;SDS011;14537;47.788;11.858;2023-06-10T14:03:34;3.92;;;2.53;;
26989;SDS011;14537;47.788;11.858;2023-06-10T14:06:00;6.63;;;3.35;;
26989;SDS011;14537;47.788;11.858;2023-06-10T14:08:26;6.50;;;3.90;;
26989;SDS011;14537;47.788;11.858;2023-06-10T14:10:52;7.57;;;4.05;;
26989;SDS011;14537;47.788;11.858;2023-06-10T14:13:18;3.83;;;2.60;;
26989;SDS011;14537;47.788;11.858;2023-06-10T14:15:43;4.05;;;2.70;;
26989;SDS011;14537;47.788;11.858;2023-06-10T14:18:09;4.22;;;2.60;;
26989;SDS011;14537;47.788;11.858;2023-06-10T14:20:35;2.40;;;2.00;;
26989;SDS011;14537;47.788;11.858;2023-06-10T14:23:01;3.08;;;2.13;;
26989;SDS011;14537;47.788;11.858;2023-06-10T14:25:27;3.40;;;2.33;;
26989;SDS011;14537;47.788;11.858;2023-06-10T14:27:52;3.22;;;2.28;;
26989;SDS011;14537;47.788;11.858;2023-06-10T14:30:18;3.42;;;2.35;;
26989;SDS011;14537;47.788;11.858;2023-06-10T14:32:44;3.75;;;2.30;;
26989;SDS011;14537;47.788;11.858;2023-06-10T14:35:10;3.58;;;2.47;;
26989;SDS011;14537;47.788;11.858;2023-06-10T14:37:36;6.55;;;1.92;;
26989;SDS011;14537;47.788;11.858;2023-06-10T14:40:02;3.13;;;2.25;;
26989;SDS011;14537;47.788;11.858;2023-06-10T14:42:29;2.97;;;2.20;;
26989;SDS011;14537;47.788;11.858;2023-06-10T14:44:54;2.63;;;2.10;;
26989;SDS011;14537;47.788;11.858;2023-06-10T14:47:20;2.28;;;1.80;;
26989;SDS011;14537;47.788;11.858;2023-06-10T14:49:45;3.13;;;2.10;;
26989;SDS011;14537;47.788;11.858;2023-06-10T14:52:11;2.63;;;2.03;;
26989;SDS011;14537;47.788;11.858;2023-06-10T14:54:37;3.50;;;2.22;;
26989;SDS011;14537;47.788;11.858;2023-06-10T14:57:02;2.33;;;1.90;;